ホニアラ の空港の天気 - METARとTAF

ホニアラ国際空港 ( AGGH / HIR ) - ソロモン諸島 ガダルカナル島ホニアラ
飛行場実況気象(Metar)
観測時間08/05 07:00 SBT (08/04 20:00 UTC)
風向・風速南東 1m/s
視程10km以上
天気現象
少しの雲 雲底高度 490m
気温22℃
湿度94%
気圧1009hPa
METARAGGH 042000Z 14002KT 9999 FEW016 22/21 Q1009
過去の天気等 Google飛行場航空写真 Wunderground天気予報

過去48時間のMETAR

飛行場予報(TAF)
発表時間: 8/05 04:10 SBT (8/04 17:10 UTC)
予報対象時間: 5日5時 SBT ~ 6日5時 SBT
風向・風速東北東 8m/s
視程10km以上
全天の4割程度の雲 雲底高度 580m
TAF AGGH 041710Z 0418/0518 07015KT 9999 SCT019 T 23 27 31 32 Q 1008 1010 1010 1008